Terminal Aerodrome Forecast
Issued by NWS

Home | Current Version | Previous Version | Text Only | Print | Product List | Glossary On
Versions: 1 2 3 4 5 6 7 8 9 10 11 12 13 14
000
FTUS44 KOUN 202321
TAFPNC
TAF
KPNC 202321Z 2100/2124 12014KT P6SM BKN120
      TEMPO 2104/2108 -SHRA SCT025 OVC060
     FM210800 10014KT 3SM -TSRA BR SCT008 OVC015CB
     FM211800 06012KT 5SM -SHRA BR OVC009=

USA.gov is the U.S. government's official web portal to all federal, state and local government web resources and services.